createdAt,value
2022-10-18T00:02:23.720Z,65.65
2022-10-18T00:04:50.630Z,61.08
2022-10-18T00:07:17.413Z,64.80
2022-10-18T00:09:44.323Z,66.78
2022-10-18T00:12:12.182Z,58.78
2022-10-18T00:14:39.073Z,58.72
2022-10-18T00:17:05.962Z,62.45
2022-10-18T00:19:32.773Z,46.95
2022-10-18T00:21:59.564Z,42.90
2022-10-18T00:24:26.462Z,42.75
2022-10-18T00:26:53.321Z,37.85
2022-10-18T00:29:20.272Z,37.13
2022-10-18T00:31:47.122Z,33.95
2022-10-18T00:34:15.993Z,28.50
2022-10-18T00:36:44.044Z,26.85
2022-10-18T00:39:19.883Z,39.70
2022-10-18T00:41:46.783Z,32.20
2022-10-18T00:44:13.648Z,34.30
2022-10-18T00:46:43.453Z,32.30
2022-10-18T00:49:25.354Z,33.65
2022-10-18T00:51:58.097Z,32.40
2022-10-18T00:54:25.718Z,35.92
2022-10-18T00:56:52.868Z,35.85
2022-10-18T00:59:20.342Z,35.13
2022-10-18T01:01:47.311Z,42.03
2022-10-18T01:04:16.130Z,40.97
2022-10-18T01:06:58.254Z,41.95
2022-10-18T01:09:41.540Z,38.60
2022-10-18T01:12:25.091Z,36.50
2022-10-18T01:14:59.703Z,35.50
2022-10-18T01:17:26.542Z,32.22
2022-10-18T01:20:16.632Z,30.05
2022-10-18T01:23:04.222Z,31.55
2022-10-18T01:26:20.613Z,31.85
2022-10-18T01:28:56.267Z,29.10
2022-10-18T01:31:40.026Z,29.13
2022-10-18T01:34:10.493Z,27.33
2022-10-18T01:36:48.491Z,30.67
2022-10-18T01:39:37.983Z,31.45
2022-10-18T01:42:10.135Z,31.38
2022-10-18T01:44:39.295Z,27.63
2022-10-18T01:47:10.609Z,24.92
2022-10-18T01:49:37.621Z,26.38
2022-10-18T01:52:05.008Z,22.33
2022-10-18T01:54:40.225Z,23.25
2022-10-18T01:57:19.823Z,20.30
2022-10-18T02:00:00.110Z,20.52
2022-10-18T02:02:41.356Z,21.02
2022-10-18T02:05:33.222Z,21.27
2022-10-18T02:08:22.068Z,21.63
2022-10-18T02:10:55.310Z,20.52
2022-10-18T02:13:24.032Z,21.40
2022-10-18T02:15:56.601Z,21.25
2022-10-18T02:18:28.293Z,20.95
2022-10-18T02:20:56.052Z,16.92
2022-10-18T02:23:26.919Z,19.63
2022-10-18T02:25:54.272Z,20.50
2022-10-18T02:28:22.020Z,17.75
2022-10-18T02:31:27.700Z,18.75
2022-10-18T02:33:58.971Z,19.48
2022-10-18T02:36:33.767Z,20.40
2022-10-18T02:39:25.361Z,20.00
2022-10-18T02:41:55.623Z,21.25
2022-10-18T02:44:22.467Z,15.90
2022-10-18T02:46:49.349Z,19.52
2022-10-18T02:49:17.585Z,19.60
2022-10-18T02:51:44.391Z,21.08
2022-10-18T02:54:11.301Z,28.15
2022-10-18T02:56:38.225Z,19.75
2022-10-18T02:59:07.472Z,20.92
2022-10-18T03:01:37.562Z,16.92
2022-10-18T03:04:07.788Z,18.92
2022-10-18T03:06:34.732Z,16.98
2022-10-18T03:09:06.572Z,19.35
2022-10-18T03:11:33.483Z,18.00
2022-10-18T03:14:03.090Z,21.23
2022-10-18T03:16:30.039Z,19.15
2022-10-18T03:18:57.023Z,19.30
2022-10-18T03:21:23.882Z,20.05
2022-10-18T03:23:50.714Z,20.73
2022-10-18T03:26:17.738Z,21.80
2022-10-18T03:28:44.684Z,18.88
2022-10-18T03:31:11.636Z,20.17
2022-10-18T03:33:38.551Z,21.48
2022-10-18T03:36:05.552Z,18.33
2022-10-18T03:38:32.433Z,15.88
2022-10-18T03:40:59.362Z,20.52
2022-10-18T03:43:26.263Z,21.33
2022-10-18T03:45:53.151Z,22.77
2022-10-18T03:48:20.145Z,19.30
2022-10-18T03:50:46.912Z,26.52
2022-10-18T03:53:13.982Z,20.83
2022-10-18T03:55:41.162Z,21.45
2022-10-18T03:58:08.007Z,21.33
2022-10-18T04:00:35.142Z,21.73
2022-10-18T04:03:02.172Z,18.33
2022-10-18T04:05:31.045Z,19.27
2022-10-18T04:07:58.632Z,21.40
2022-10-18T04:10:26.035Z,27.83
2022-10-18T04:12:53.051Z,18.83
2022-10-18T04:15:20.657Z,24.20
2022-10-18T04:17:47.712Z,18.48
2022-10-18T04:20:14.764Z,21.15
2022-10-18T04:22:41.620Z,19.27
2022-10-18T04:25:08.982Z,20.13
2022-10-18T04:27:36.582Z,17.92
2022-10-18T04:30:04.062Z,26.27
2022-10-18T04:32:31.068Z,21.30
2022-10-18T04:34:57.895Z,20.80
2022-10-18T04:37:24.744Z,24.08
2022-10-18T04:39:53.712Z,24.38
2022-10-18T04:42:22.122Z,23.60
2022-10-18T04:44:48.992Z,23.77
2022-10-18T04:47:16.874Z,25.83
2022-10-18T04:49:43.735Z,22.27
2022-10-18T04:52:11.932Z,28.25
2022-10-18T04:54:38.841Z,20.98
2022-10-18T04:57:05.705Z,22.40
2022-10-18T04:59:32.525Z,22.90
2022-10-18T05:01:59.457Z,24.45
2022-10-18T05:04:26.354Z,23.15
2022-10-18T05:06:53.163Z,33.38
2022-10-18T05:09:22.499Z,23.00
2022-10-18T05:11:49.291Z,23.48
2022-10-18T05:14:16.370Z,29.75
2022-10-18T05:16:43.221Z,30.95
2022-10-18T05:19:10.062Z,23.42
2022-10-18T05:21:36.863Z,23.73
2022-10-18T05:24:04.086Z,20.77
2022-10-18T05:26:30.913Z,25.05
2022-10-18T05:28:58.013Z,19.33
2022-10-18T05:31:24.915Z,22.35
2022-10-18T05:33:51.724Z,22.67
2022-10-18T05:36:18.885Z,23.95
2022-10-18T05:38:48.474Z,20.90
2022-10-18T05:41:15.389Z,22.70
2022-10-18T05:43:42.281Z,22.85
2022-10-18T05:46:14.692Z,18.95
2022-10-18T05:48:44.928Z,18.55
2022-10-18T05:51:12.176Z,19.85
2022-10-18T05:53:39.069Z,26.13
2022-10-18T05:56:07.285Z,22.90
2022-10-18T05:58:35.741Z,20.70
2022-10-18T06:01:03.417Z,21.92
2022-10-18T06:03:33.553Z,22.65
2022-10-18T06:06:05.821Z,25.15
2022-10-18T06:08:33.324Z,16.17
2022-10-18T06:11:00.337Z,25.52
2022-10-18T06:13:29.104Z,16.17
2022-10-18T06:15:58.025Z,17.15
2022-10-18T06:18:24.925Z,12.27
2022-10-18T06:20:59.192Z,15.70
2022-10-18T06:23:27.694Z,15.45
2022-10-18T06:25:58.162Z,16.75
2022-10-18T06:28:25.178Z,15.93
2022-10-18T06:30:52.019Z,19.63
2022-10-18T06:33:18.879Z,20.70
2022-10-18T06:35:58.375Z,18.05
2022-10-18T06:38:25.771Z,18.08
2022-10-18T06:40:53.891Z,28.08
2022-10-18T06:43:21.661Z,15.25
2022-10-18T06:46:08.271Z,18.98
2022-10-18T06:48:36.508Z,18.33
2022-10-18T06:51:05.568Z,14.05
2022-10-18T06:53:40.730Z,13.50
2022-10-18T06:56:13.032Z,15.05
2022-10-18T06:58:40.993Z,11.90
2022-10-18T07:01:10.027Z,11.77
2022-10-18T07:03:37.071Z,15.25
2022-10-18T07:06:09.007Z,12.95
2022-10-18T07:08:36.214Z,17.23
2022-10-18T07:11:03.542Z,21.35
2022-10-18T07:13:33.103Z,16.52
2022-10-18T07:16:01.369Z,15.30
2022-10-18T07:18:28.398Z,13.13
2022-10-18T07:20:55.263Z,13.45
2022-10-18T07:23:23.985Z,11.00
2022-10-18T07:25:51.334Z,12.20
2022-10-18T07:28:18.495Z,12.18
2022-10-18T07:30:45.311Z,12.35
2022-10-18T07:33:12.160Z,12.18
2022-10-18T07:35:38.953Z,16.10
2022-10-18T07:38:05.743Z,13.15
2022-10-18T07:40:32.723Z,12.27
2022-10-18T07:43:04.089Z,10.40
2022-10-18T07:45:32.272Z,13.40
2022-10-18T07:47:59.267Z,14.85
2022-10-18T07:50:26.175Z,11.27
2022-10-18T07:52:52.941Z,12.52
2022-10-18T07:55:19.922Z,11.27
2022-10-18T07:57:46.763Z,11.63
2022-10-18T08:00:14.072Z,12.95
2022-10-18T08:02:40.999Z,13.10
2022-10-18T08:05:08.098Z,14.30
2022-10-18T08:07:35.086Z,10.27
2022-10-18T08:10:02.071Z,18.15
2022-10-18T08:12:29.005Z,16.33
2022-10-18T08:14:55.759Z,14.15
2022-10-18T08:17:22.593Z,14.75
2022-10-18T08:19:58.567Z,11.90
2022-10-18T08:22:36.419Z,9.98
2022-10-18T08:25:04.581Z,9.93
2022-10-18T08:27:31.724Z,9.98
2022-10-18T08:30:00.091Z,13.48
2022-10-18T08:32:28.580Z,10.02
2022-10-18T08:34:55.482Z,11.43
2022-10-18T08:37:22.557Z,8.65
2022-10-18T08:39:49.330Z,10.90
2022-10-18T08:42:41.195Z,5.75
2022-10-18T08:45:18.024Z,8.18
2022-10-18T08:47:58.280Z,9.05
2022-10-18T08:50:35.488Z,6.63
2022-10-18T08:53:20.633Z,8.25
2022-10-18T08:56:05.274Z,8.45
2022-10-18T08:58:33.800Z,8.00
2022-10-18T09:01:21.817Z,9.98
2022-10-18T09:04:08.882Z,9.95
2022-10-18T09:09:25.134Z,10.32
2022-10-18T09:12:03.973Z,8.80
2022-10-18T09:14:39.905Z,7.97
2022-10-18T09:17:26.012Z,7.80
2022-10-18T09:20:11.024Z,5.57
2022-10-18T09:22:46.872Z,10.50
2022-10-18T09:25:21.055Z,10.63
2022-10-18T09:27:57.135Z,8.15
2022-10-18T09:30:37.440Z,8.27
2022-10-18T09:33:13.258Z,8.65
2022-10-18T09:35:55.027Z,8.15
2022-10-18T09:38:26.710Z,10.13
2022-10-18T09:41:02.577Z,9.73
2022-10-18T09:43:48.335Z,12.07
2022-10-18T09:46:18.354Z,10.95
2022-10-18T09:49:06.136Z,14.55
2022-10-18T09:51:40.096Z,4.63
2022-10-18T09:54:28.435Z,6.68
2022-10-18T09:57:02.756Z,5.88
2022-10-18T09:59:41.494Z,7.82
2022-10-18T10:02:22.672Z,7.25
2022-10-18T10:04:50.431Z,6.47
2022-10-18T10:07:19.987Z,8.23
2022-10-18T10:09:55.767Z,8.65
2022-10-18T10:12:27.953Z,10.07
2022-10-18T10:14:54.957Z,4.32
2022-10-18T10:17:29.870Z,8.05
2022-10-18T10:20:20.343Z,11.70
2022-10-18T10:22:48.216Z,8.95
2022-10-18T10:25:32.957Z,9.98
2022-10-18T10:28:05.411Z,6.38
2022-10-18T10:30:35.703Z,8.40
2022-10-18T10:33:03.713Z,10.40
2022-10-18T10:38:25.270Z,9.88
2022-10-18T10:40:52.883Z,9.98
2022-10-18T10:43:38.168Z,9.10
2022-10-18T10:46:08.221Z,5.25
2022-10-18T10:48:46.090Z,8.90
2022-10-18T10:51:13.510Z,20.00
2022-10-18T10:53:42.930Z,7.75
2022-10-18T10:56:37.590Z,7.65
2022-10-18T10:59:14.609Z,9.48
2022-10-18T11:01:42.104Z,9.45
2022-10-18T11:04:30.067Z,7.13
2022-10-18T11:07:09.500Z,6.20
2022-10-18T11:09:46.197Z,8.48
2022-10-18T11:12:38.141Z,8.15
2022-10-18T11:15:12.118Z,9.50
2022-10-18T11:18:00.766Z,10.07
2022-10-18T11:20:49.436Z,10.93
2022-10-18T11:23:18.225Z,4.82
2022-10-18T11:26:03.223Z,5.20
2022-10-18T11:29:03.097Z,13.15
2022-10-18T11:31:40.552Z,10.95
2022-10-18T11:34:32.751Z,7.82
2022-10-18T11:37:37.529Z,5.97
2022-10-18T11:40:43.880Z,4.55
2022-10-18T11:43:19.623Z,5.07
2022-10-18T11:46:05.430Z,6.77
2022-10-18T11:48:42.965Z,7.38
2022-10-18T11:51:34.011Z,4.60
2022-10-18T11:54:17.892Z,4.40
2022-10-18T11:57:16.475Z,4.40
2022-10-18T11:59:58.951Z,10.15
2022-10-18T12:02:37.810Z,5.53
2022-10-18T12:05:24.367Z,15.48
2022-10-18T12:10:52.770Z,9.90
2022-10-18T12:13:34.076Z,13.32
2022-10-18T12:16:04.314Z,10.07
2022-10-18T12:18:33.117Z,10.40
2022-10-18T12:21:01.974Z,17.45
2022-10-18T12:23:54.920Z,15.45
2022-10-18T12:26:23.043Z,10.93
2022-10-18T12:29:08.538Z,16.75
2022-10-18T12:31:42.300Z,7.57
2022-10-18T12:34:42.029Z,14.45
2022-10-18T12:37:42.139Z,15.15
2022-10-18T12:40:21.879Z,13.85
2022-10-18T12:42:52.290Z,12.68
2022-10-18T12:45:35.059Z,10.15
2022-10-18T12:48:38.884Z,11.25
2022-10-18T12:51:16.415Z,10.80
2022-10-18T12:53:46.548Z,10.65
2022-10-18T12:56:28.631Z,13.90
2022-10-18T12:59:16.774Z,15.38
2022-10-18T13:01:55.545Z,13.52
2022-10-18T13:04:28.614Z,8.90
2022-10-18T13:06:58.535Z,13.50
2022-10-18T13:10:08.379Z,17.17
2022-10-18T13:12:44.126Z,9.80
2022-10-18T13:15:26.278Z,15.73
2022-10-18T13:18:05.912Z,13.27
2022-10-18T13:20:53.561Z,15.30
2022-10-18T13:23:41.664Z,9.55
2022-10-18T13:26:32.058Z,10.55
2022-10-18T13:29:14.863Z,8.40
2022-10-18T13:34:49.846Z,11.50
2022-10-18T13:37:16.635Z,13.82
2022-10-18T13:39:43.707Z,11.57
2022-10-18T13:42:16.549Z,6.78
2022-10-18T13:44:44.892Z,4.55
2022-10-18T13:47:32.129Z,8.48
2022-10-18T13:50:21.675Z,5.80
2022-10-18T13:53:08.269Z,7.50
2022-10-18T13:56:26.256Z,5.22
2022-10-18T13:59:28.987Z,7.60
2022-10-18T14:02:51.832Z,6.68
2022-10-18T14:05:47.410Z,4.68
2022-10-18T14:08:20.959Z,9.20
2022-10-18T14:11:21.516Z,8.55
2022-10-18T14:14:08.203Z,6.00
2022-10-18T14:16:46.374Z,9.48
2022-10-18T14:19:37.023Z,9.18
2022-10-18T14:22:09.630Z,10.18
2022-10-18T14:24:41.068Z,6.80
2022-10-18T14:27:20.052Z,5.07
2022-10-18T14:29:48.541Z,7.95
2022-10-18T14:32:30.252Z,5.85
2022-10-18T14:35:27.338Z,7.65
2022-10-18T14:37:44.347Z,6.32
2022-10-18T14:40:39.145Z,6.78
2022-10-18T14:43:12.751Z,8.23
2022-10-18T14:45:41.022Z,8.70
2022-10-18T14:48:34.198Z,9.25
2022-10-18T14:51:03.304Z,14.45
2022-10-18T14:53:37.392Z,11.32
2022-10-18T14:56:04.910Z,10.95
2022-10-18T14:58:32.937Z,9.98
2022-10-18T15:01:00.032Z,12.63
2022-10-18T15:03:28.525Z,13.20
2022-10-18T15:06:01.938Z,12.32
2022-10-18T15:08:40.696Z,15.40
2022-10-18T15:11:11.857Z,15.07
2022-10-18T15:13:59.956Z,11.77
2022-10-18T15:16:30.981Z,18.80
2022-10-18T15:19:15.896Z,22.45
2022-10-18T15:25:06.085Z,18.42
2022-10-18T15:27:37.032Z,15.70
2022-10-18T15:30:11.151Z,27.63
2022-10-18T15:32:40.499Z,16.55
2022-10-18T15:35:14.658Z,23.25
2022-10-18T15:37:47.620Z,28.17
2022-10-18T15:40:23.353Z,38.72
2022-10-18T15:42:52.705Z,36.63
2022-10-18T15:45:25.412Z,36.55
2022-10-18T15:48:09.527Z,31.65
2022-10-18T15:50:45.021Z,26.17
2022-10-18T15:53:21.409Z,19.75
2022-10-18T15:56:31.231Z,20.63
2022-10-18T15:59:00.752Z,25.83
2022-10-18T16:01:38.843Z,18.65
2022-10-18T16:04:12.672Z,24.45
2022-10-18T16:06:39.559Z,18.83
2022-10-18T16:09:06.730Z,18.67
2022-10-18T16:11:33.592Z,43.90
2022-10-18T16:14:00.830Z,39.33
2022-10-18T16:16:47.232Z,48.33
2022-10-18T16:19:15.831Z,100.63
2022-10-18T16:21:42.962Z,53.00
2022-10-18T16:24:09.933Z,49.00
2022-10-18T16:26:37.822Z,38.65
2022-10-18T16:29:05.772Z,41.42
2022-10-18T16:31:34.628Z,39.55
2022-10-18T16:34:02.660Z,39.65
2022-10-18T16:36:33.822Z,41.80
2022-10-18T16:39:03.832Z,41.58
2022-10-18T16:41:30.670Z,50.08
2022-10-18T16:43:57.512Z,43.08
2022-10-18T16:46:30.051Z,45.90
2022-10-18T16:48:57.984Z,43.33
2022-10-18T16:51:25.167Z,45.90
2022-10-18T16:53:53.832Z,47.33
2022-10-18T16:56:24.487Z,57.75
2022-10-18T16:58:52.099Z,74.78
2022-10-18T17:01:21.289Z,86.40
2022-10-18T17:03:48.801Z,87.00
2022-10-18T17:06:24.514Z,82.80
2022-10-18T17:08:52.163Z,80.63
2022-10-18T17:11:20.133Z,80.15
2022-10-18T17:13:47.294Z,68.60
2022-10-18T17:16:31.369Z,66.05
2022-10-18T17:19:00.564Z,63.65
2022-10-18T17:21:28.850Z,60.50
2022-10-18T17:23:57.594Z,46.50
2022-10-18T17:26:29.257Z,56.22
2022-10-18T17:28:59.605Z,56.50
2022-10-18T17:31:26.972Z,52.67
2022-10-18T17:33:55.493Z,59.38
2022-10-18T17:36:22.778Z,54.95
2022-10-18T17:38:53.969Z,52.35
2022-10-18T17:41:21.353Z,38.53
2022-10-18T17:43:48.697Z,46.63
2022-10-18T17:46:16.085Z,43.17
2022-10-18T17:48:43.219Z,48.67
2022-10-18T17:51:12.003Z,60.25
2022-10-18T17:53:39.309Z,49.60
2022-10-18T17:56:07.856Z,47.97
2022-10-18T17:58:35.172Z,54.45
2022-10-18T18:01:28.472Z,57.75
2022-10-18T18:04:03.472Z,62.58
2022-10-18T18:06:40.187Z,67.57
2022-10-18T18:09:10.582Z,69.93
2022-10-18T18:11:38.878Z,78.85
2022-10-18T18:14:10.013Z,73.57
2022-10-18T18:16:39.289Z,74.78
2022-10-18T18:19:09.662Z,74.35
2022-10-18T18:21:37.929Z,68.85
2022-10-18T18:24:05.191Z,89.00
2022-10-18T18:26:33.564Z,83.10
2022-10-18T18:31:30.772Z,93.70
2022-10-18T18:34:01.264Z,90.35
2022-10-18T18:36:32.680Z,90.90
2022-10-18T18:38:59.627Z,87.53
2022-10-18T18:41:28.619Z,87.82
2022-10-18T18:43:57.991Z,95.93
2022-10-18T18:46:27.073Z,106.05
2022-10-18T18:48:54.292Z,114.53
2022-10-18T18:51:22.136Z,116.10
2022-10-18T18:53:49.190Z,111.65
2022-10-18T18:58:54.378Z,119.85
2022-10-18T19:01:24.093Z,117.82
2022-10-18T19:03:53.391Z,123.35
2022-10-18T19:06:41.163Z,129.90
2022-10-18T19:09:18.551Z,135.15
2022-10-18T19:11:47.162Z,118.68
2022-10-18T19:14:15.139Z,141.82
2022-10-18T19:16:47.619Z,131.55
2022-10-18T19:19:19.680Z,134.95
2022-10-18T19:21:49.559Z,123.35
2022-10-18T19:24:16.370Z,121.70
2022-10-18T19:26:46.240Z,126.22
2022-10-18T19:29:29.881Z,128.38
2022-10-18T19:31:59.463Z,129.05
2022-10-18T19:34:28.515Z,125.35
2022-10-18T19:36:55.629Z,113.07
2022-10-18T19:39:24.702Z,104.30
2022-10-18T19:41:55.337Z,109.75
2022-10-18T19:44:23.998Z,107.82
2022-10-18T19:46:51.648Z,104.07
2022-10-18T19:49:18.603Z,122.88
2022-10-18T19:51:45.642Z,135.23
2022-10-18T19:54:14.030Z,138.43
2022-10-18T19:56:44.369Z,150.23
2022-10-18T19:59:12.778Z,144.50
2022-10-18T20:01:39.707Z,144.07
2022-10-18T20:04:08.397Z,136.60
2022-10-18T20:06:36.249Z,130.90
2022-10-18T20:09:03.525Z,123.38
2022-10-18T20:11:30.652Z,122.55
2022-10-18T20:13:57.826Z,112.43
2022-10-18T20:16:28.865Z,115.03
2022-10-18T20:19:00.945Z,95.70
2022-10-18T20:21:29.399Z,91.38
2022-10-18T20:23:56.711Z,90.65
2022-10-18T20:26:25.558Z,87.00
2022-10-18T20:28:57.242Z,82.18
2022-10-18T20:31:29.318Z,79.95
2022-10-18T20:33:59.124Z,86.68
2022-10-18T20:36:27.091Z,79.47
2022-10-18T20:38:55.072Z,83.22
2022-10-18T20:41:28.500Z,79.10
2022-10-18T20:44:10.887Z,83.70
2022-10-18T20:46:38.601Z,64.70
2022-10-18T20:49:07.110Z,52.55
2022-10-18T20:51:34.419Z,54.70
2022-10-18T20:56:34.439Z,56.83
2022-10-18T20:59:01.908Z,60.95
2022-10-18T21:01:31.868Z,59.13
2022-10-18T21:04:01.565Z,60.88
2022-10-18T21:06:34.283Z,55.25
2022-10-18T21:09:03.383Z,58.40
2022-10-18T21:11:34.343Z,66.20
2022-10-18T21:14:04.897Z,70.82
2022-10-18T21:16:33.866Z,59.40
2022-10-18T21:19:05.051Z,63.60
2022-10-18T21:21:31.934Z,68.70
2022-10-18T21:24:02.408Z,68.25
2022-10-18T21:26:32.282Z,62.25
2022-10-18T21:28:59.939Z,68.22
2022-10-18T21:31:29.640Z,63.28
2022-10-18T21:33:59.093Z,66.97
2022-10-18T21:36:27.544Z,65.00
2022-10-18T21:38:54.417Z,62.70
2022-10-18T21:41:21.930Z,65.63
2022-10-18T21:43:51.185Z,57.95
2022-10-18T21:46:19.986Z,52.67
2022-10-18T21:48:49.184Z,55.80
2022-10-18T21:51:18.506Z,49.10
2022-10-18T21:53:47.254Z,48.17
2022-10-18T21:56:19.618Z,47.72
2022-10-18T21:58:46.967Z,38.25
2022-10-18T22:01:15.364Z,40.97
2022-10-18T22:03:42.902Z,38.28
2022-10-18T22:06:14.715Z,34.33
2022-10-18T22:08:43.675Z,40.15
2022-10-18T22:11:12.625Z,47.83
2022-10-18T22:13:39.934Z,54.92
2022-10-18T22:16:07.883Z,52.78
2022-10-18T22:18:35.595Z,40.90
2022-10-18T22:21:06.278Z,46.10
2022-10-18T22:23:35.736Z,41.47
2022-10-18T22:26:14.653Z,40.85
2022-10-18T22:28:43.005Z,44.70
2022-10-18T22:33:32.502Z,42.00
2022-10-18T22:35:59.322Z,41.25
2022-10-18T22:38:26.123Z,39.78
2022-10-18T22:40:53.189Z,42.75
2022-10-18T22:43:19.983Z,37.83
2022-10-18T22:45:46.897Z,35.60
2022-10-18T22:48:13.732Z,38.58
2022-10-18T22:50:40.636Z,41.13
2022-10-18T22:53:07.742Z,37.28
2022-10-18T22:55:34.627Z,46.67
2022-10-18T22:58:07.757Z,42.60
2022-10-18T23:00:34.718Z,40.88
2022-10-18T23:03:01.730Z,43.10
2022-10-18T23:05:28.843Z,41.15
2022-10-18T23:07:55.633Z,40.85
2022-10-18T23:10:22.685Z,38.05
2022-10-18T23:12:49.534Z,39.00
2022-10-18T23:15:16.369Z,35.75
2022-10-18T23:17:43.366Z,42.05
2022-10-18T23:20:10.575Z,36.90
2022-10-18T23:22:37.514Z,33.38
2022-10-18T23:25:04.766Z,35.03
2022-10-18T23:27:31.790Z,34.95
2022-10-18T23:29:58.665Z,38.08
2022-10-18T23:32:43.935Z,35.45
2022-10-18T23:35:11.120Z,36.38
2022-10-18T23:37:38.183Z,36.13
2022-10-18T23:40:05.462Z,33.05
2022-10-18T23:42:32.359Z,37.22
2022-10-18T23:44:59.162Z,38.60
2022-10-18T23:47:26.002Z,42.33
2022-10-18T23:49:53.388Z,40.60
2022-10-18T23:52:20.220Z,41.80
2022-10-18T23:54:47.268Z,39.42
2022-10-18T23:57:14.493Z,39.28
2022-10-18T23:59:41.319Z,35.10
